Main page
METAR-TAF:

METAR-TAF

Airports :

Singapore, Singapore

Paya Lebar Air Base

latitude: 01-22N, longitude: 103-55E, elevation: 18 m

Current weather observation

The report was made 1 hour and 9 minutes ago, at 01:00 UTC
Wind 5 kt from the North
Temperature 27°C
Humidity 79%
Pressure 1013 hPa
Visibility 10 km or more
Few clouds at a height of 1800 ft
Broken clouds at a height of 30000 ft

METAR: WSAP 170100Z 35005KT 9999 FEW018 BKN300 27/23 Q1013

Time: 10:09 (02:09 UTC)

Forecast

The report was made 3 hours and 9 minutes ago, at 23:00 UTC
Forecast valid from 17 at 00 UTC to 18 at 06 UTC
Wind 10 kt from the North/Northeast
Visibility 10 km or more
Few clouds at a height of 1800 ft, Cumulonimbus.
Scattered clouds at a height of 2000 ft
Temporary
from 17 at 05 UTC to 17 at 09 UTC
Visibility: 4500 m
Few clouds at a height of 1500 ft, Cumulonimbus.
Broken clouds at a height of 1800 ft
rain showers

TAF: WSAP 162300Z 1700/1806 02010KT 9999 FEW018CB SCT020 TEMPO 1705/1709 4500 SHRA FEW015CB BKN018

Weather observations and forecasts of more than 4000 airports (METAR and TAF reports).

The available stations are represented by yellow and red dots on the map.

Hover mouse over dot to see the name of the station.

Then click to see weather observations and forecasts.

To change the map : click on the green buttons with a black cross to zoom in, on the green button with a dash to zoom out, or on the green arrows for adjacent maps.


METAR-TAF: